createdAt,value
2023-04-02T00:01:33.330Z,27.05
2023-04-02T00:04:17.101Z,26.05
2023-04-02T00:06:41.282Z,25.83
2023-04-02T00:08:49.912Z,25.67
2023-04-02T00:10:58.630Z,23.42
2023-04-02T00:13:20.561Z,23.17
2023-04-02T00:15:27.686Z,22.05
2023-04-02T00:17:34.613Z,23.02
2023-04-02T00:19:50.038Z,22.95
2023-04-02T00:21:57.579Z,23.00
2023-04-02T00:24:10.393Z,21.33
2023-04-02T00:26:33.511Z,22.95
2023-04-02T00:28:40.888Z,21.17
2023-04-02T00:30:57.186Z,21.92
2023-04-02T00:33:05.202Z,21.67
2023-04-02T00:35:22.096Z,21.90
2023-04-02T00:37:40.333Z,21.63
2023-04-02T00:39:47.363Z,22.60
2023-04-02T00:42:05.968Z,22.20
2023-04-02T00:44:16.832Z,22.02
2023-04-02T00:46:28.577Z,22.50
2023-04-02T00:48:45.680Z,22.52
2023-04-02T00:50:56.292Z,22.33
2023-04-02T00:53:07.796Z,22.92
2023-04-02T00:57:26.580Z,21.65
2023-04-02T00:59:35.116Z,22.27
2023-04-02T01:01:43.716Z,21.65
2023-04-02T01:03:59.251Z,23.63
2023-04-02T01:06:13.443Z,22.25
2023-04-02T01:08:30.661Z,23.63
2023-04-02T01:10:58.190Z,21.80
2023-04-02T01:13:15.284Z,22.02
2023-04-02T01:15:25.333Z,22.30
2023-04-02T01:17:49.893Z,21.10
2023-04-02T01:20:31.050Z,21.50
2023-04-02T01:22:49.031Z,21.95
2023-04-02T01:25:00.885Z,21.58
2023-04-02T01:27:11.744Z,22.35
2023-04-02T01:29:23.587Z,21.65
2023-04-02T01:31:31.619Z,22.63
2023-04-02T01:33:39.327Z,22.52
2023-04-02T01:35:50.362Z,21.08
2023-04-02T01:38:05.983Z,21.83
2023-04-02T01:40:34.305Z,22.13
2023-04-02T01:42:48.821Z,21.02
2023-04-02T01:45:04.294Z,21.30
2023-04-02T01:47:15.719Z,21.45
2023-04-02T01:51:33.088Z,21.20
2023-04-02T01:53:42.942Z,22.08
2023-04-02T01:55:51.914Z,21.98
2023-04-02T01:58:00.529Z,22.25
2023-04-02T02:00:14.006Z,22.40
2023-04-02T02:02:24.823Z,22.00
2023-04-02T02:04:33.102Z,20.98
2023-04-02T02:06:40.570Z,22.73
2023-04-02T02:08:53.794Z,23.30
2023-04-02T02:11:02.366Z,22.00
2023-04-02T02:13:09.591Z,21.50
2023-04-02T02:15:23.332Z,21.45
2023-04-02T02:17:35.453Z,21.45
2023-04-02T02:19:46.037Z,23.73
2023-04-02T02:21:56.444Z,22.75
2023-04-02T02:24:05.986Z,21.55
2023-04-02T02:26:16.496Z,21.92
2023-04-02T02:28:27.155Z,20.70
2023-04-02T02:30:39.303Z,19.20
2023-04-02T02:32:56.035Z,20.25
2023-04-02T02:35:09.948Z,19.52
2023-04-02T02:37:20.974Z,23.75
2023-04-02T02:39:33.015Z,21.27
2023-04-02T02:41:46.045Z,20.58
2023-04-02T02:43:59.671Z,21.35
2023-04-02T02:46:11.411Z,22.70
2023-04-02T02:48:21.451Z,21.70
2023-04-02T02:50:32.840Z,23.05
2023-04-02T02:52:50.459Z,24.17
2023-04-02T02:55:01.256Z,21.25
2023-04-02T02:57:24.965Z,20.97
2023-04-02T02:59:33.977Z,21.02
2023-04-02T03:01:45.809Z,21.00
2023-04-02T03:03:57.471Z,20.60
2023-04-02T03:06:09.508Z,20.45
2023-04-02T03:08:24.918Z,20.40
2023-04-02T03:10:40.183Z,19.88
2023-04-02T03:12:52.536Z,20.70
2023-04-02T03:15:07.280Z,20.70
2023-04-02T03:17:24.384Z,19.00
2023-04-02T03:19:38.461Z,19.98
2023-04-02T03:21:55.320Z,20.85
2023-04-02T03:24:06.900Z,16.70
2023-04-02T03:26:18.281Z,18.60
2023-04-02T03:28:30.793Z,18.60
2023-04-02T03:32:55.453Z,14.87
2023-04-02T03:35:09.490Z,16.08
2023-04-02T03:37:22.094Z,16.40
2023-04-02T03:39:35.932Z,15.57
2023-04-02T03:41:47.947Z,15.55
2023-04-02T03:44:02.230Z,15.85
2023-04-02T03:46:26.411Z,15.90
2023-04-02T03:48:45.316Z,14.45
2023-04-02T03:50:58.585Z,14.30
2023-04-02T03:53:06.485Z,14.52
2023-04-02T03:55:18.786Z,13.98
2023-04-02T03:57:33.116Z,13.68
2023-04-02T03:59:47.383Z,14.07
2023-04-02T04:02:01.754Z,13.93
2023-04-02T04:04:16.991Z,13.75
2023-04-02T04:06:28.743Z,14.32
2023-04-02T04:08:43.809Z,13.73
2023-04-02T04:10:56.146Z,13.27
2023-04-02T04:13:09.738Z,14.15
2023-04-02T04:15:23.628Z,14.40
2023-04-02T04:17:39.694Z,16.15
2023-04-02T04:19:52.993Z,16.13
2023-04-02T04:22:15.389Z,16.83
2023-04-02T04:24:26.302Z,15.88
2023-04-02T04:26:50.696Z,16.85
2023-04-02T04:29:07.032Z,15.85
2023-04-02T04:31:24.618Z,16.33
2023-04-02T04:33:40.705Z,16.23
2023-04-02T04:35:59.761Z,17.35
2023-04-02T04:38:18.053Z,16.48
2023-04-02T04:40:29.585Z,15.52
2023-04-02T04:42:41.592Z,14.85
2023-04-02T04:44:55.376Z,14.57
2023-04-02T04:47:05.984Z,14.32
2023-04-02T04:49:18.034Z,14.10
2023-04-02T04:51:32.937Z,12.63
2023-04-02T04:53:51.335Z,13.40
2023-04-02T04:56:18.150Z,12.02
2023-04-02T04:58:35.952Z,13.43
2023-04-02T05:00:51.486Z,12.57
2023-04-02T05:03:05.892Z,12.52
2023-04-02T05:05:22.485Z,12.25
2023-04-02T05:07:34.835Z,10.93
2023-04-02T05:09:45.350Z,12.23
2023-04-02T05:11:59.599Z,11.88
2023-04-02T05:14:10.208Z,12.27
2023-04-02T05:16:26.480Z,12.05
2023-04-02T05:18:39.517Z,10.98
2023-04-02T05:20:54.587Z,11.57
2023-04-02T05:23:09.292Z,10.90
2023-04-02T05:25:25.739Z,11.35
2023-04-02T05:27:42.346Z,10.48
2023-04-02T05:29:59.402Z,10.70
2023-04-02T05:32:11.656Z,11.40
2023-04-02T05:34:28.107Z,11.52
2023-04-02T05:36:36.729Z,10.70
2023-04-02T05:38:50.305Z,11.93
2023-04-02T05:41:07.112Z,11.43
2023-04-02T05:43:18.748Z,11.18
2023-04-02T05:45:34.114Z,10.80
2023-04-02T05:47:44.831Z,10.68
2023-04-02T05:50:04.826Z,10.38
2023-04-02T05:52:20.144Z,10.68
2023-04-02T05:54:33.780Z,10.98
2023-04-02T05:56:44.951Z,11.15
2023-04-02T05:58:55.288Z,11.00
2023-04-02T06:01:19.023Z,10.13
2023-04-02T06:03:34.288Z,10.07
2023-04-02T06:05:45.934Z,10.52
2023-04-02T06:07:58.079Z,10.80
2023-04-02T06:10:11.404Z,11.00
2023-04-02T06:12:28.261Z,10.07
2023-04-02T06:14:35.699Z,10.13
2023-04-02T06:16:44.139Z,9.65
2023-04-02T06:18:51.853Z,10.38
2023-04-02T06:20:59.908Z,10.05
2023-04-02T06:23:13.691Z,9.77
2023-04-02T06:25:27.687Z,10.50
2023-04-02T06:27:37.176Z,10.75
2023-04-02T06:29:53.071Z,10.25
2023-04-02T06:32:03.731Z,10.63
2023-04-02T06:34:17.255Z,10.50
2023-04-02T06:36:32.012Z,10.60
2023-04-02T06:38:45.747Z,9.35
2023-04-02T06:40:58.925Z,10.75
2023-04-02T06:43:21.718Z,9.82
2023-04-02T06:45:49.520Z,9.90
2023-04-02T06:48:20.526Z,10.75
2023-04-02T06:50:37.025Z,10.05
2023-04-02T06:52:50.759Z,10.32
2023-04-02T06:54:58.638Z,10.98
2023-04-02T06:57:10.255Z,13.05
2023-04-02T06:59:21.009Z,10.80
2023-04-02T07:01:32.475Z,10.10
2023-04-02T07:03:40.138Z,10.68
2023-04-02T07:06:19.003Z,10.38
2023-04-02T07:08:28.494Z,10.75
2023-04-02T07:10:36.143Z,10.43
2023-04-02T07:12:46.177Z,10.15
2023-04-02T07:14:53.564Z,11.68
2023-04-02T07:17:02.172Z,10.73
2023-04-02T07:19:09.923Z,10.77
2023-04-02T07:21:18.128Z,10.63
2023-04-02T07:23:26.219Z,10.43
2023-04-02T07:25:33.911Z,11.25
2023-04-02T07:27:41.108Z,10.60
2023-04-02T07:29:50.233Z,10.48
2023-04-02T07:31:57.442Z,11.40
2023-04-02T07:34:05.416Z,9.95
2023-04-02T07:36:17.846Z,11.90
2023-04-02T07:38:25.624Z,10.40
2023-04-02T07:40:33.314Z,11.15
2023-04-02T07:42:40.748Z,11.10
2023-04-02T07:44:49.635Z,11.82
2023-04-02T07:46:57.083Z,11.68
2023-04-02T07:49:04.291Z,10.65
2023-04-02T07:51:19.574Z,10.80
2023-04-02T07:53:32.452Z,10.35
2023-04-02T07:55:39.962Z,10.93
2023-04-02T07:57:54.060Z,11.30
2023-04-02T08:00:03.026Z,10.90
2023-04-02T08:02:25.849Z,10.90
2023-04-02T08:04:33.372Z,11.00
2023-04-02T08:06:40.918Z,10.18
2023-04-02T08:08:48.263Z,10.88
2023-04-02T08:10:56.559Z,10.63
2023-04-02T08:13:03.693Z,10.82
2023-04-02T08:15:17.454Z,11.15
2023-04-02T08:17:24.772Z,10.75
2023-04-02T08:19:33.730Z,10.75
2023-04-02T08:21:51.309Z,10.77
2023-04-02T08:23:59.002Z,10.77
2023-04-02T08:26:06.652Z,11.05
2023-04-02T08:28:14.438Z,11.02
2023-04-02T08:30:24.181Z,11.68
2023-04-02T08:32:31.928Z,11.10
2023-04-02T08:34:39.057Z,10.50
2023-04-02T08:36:48.440Z,10.70
2023-04-02T08:38:55.621Z,11.07
2023-04-02T08:41:06.088Z,10.43
2023-04-02T08:43:29.909Z,10.60
2023-04-02T08:45:54.836Z,10.63
2023-04-02T08:48:04.316Z,11.13
2023-04-02T08:50:19.500Z,10.38
2023-04-02T08:52:29.245Z,10.90
2023-04-02T08:54:39.401Z,11.00
2023-04-02T08:56:52.934Z,10.95
2023-04-02T08:59:02.674Z,11.35
2023-04-02T09:01:19.754Z,11.68
2023-04-02T09:03:34.897Z,10.90
2023-04-02T09:05:45.773Z,11.10
2023-04-02T09:07:55.404Z,10.30
2023-04-02T09:10:02.709Z,10.27
2023-04-02T09:12:18.635Z,10.88
2023-04-02T09:14:35.229Z,11.40
2023-04-02T09:16:49.416Z,10.80
2023-04-02T09:18:57.425Z,10.85
2023-04-02T09:21:18.795Z,11.20
2023-04-02T09:23:28.982Z,10.70
2023-04-02T09:25:36.824Z,10.15
2023-04-02T09:27:44.380Z,11.27
2023-04-02T09:29:54.900Z,11.43
2023-04-02T09:32:16.369Z,10.05
2023-04-02T09:34:35.166Z,11.40
2023-04-02T09:36:43.578Z,11.10
2023-04-02T09:39:08.309Z,11.02
2023-04-02T09:41:23.587Z,10.82
2023-04-02T09:43:32.271Z,11.15
2023-04-02T09:45:39.980Z,11.50
2023-04-02T09:47:49.488Z,10.95
2023-04-02T09:49:56.873Z,11.25
2023-04-02T09:52:32.008Z,11.50
2023-04-02T09:54:42.828Z,11.43
2023-04-02T09:57:24.477Z,11.75
2023-04-02T09:59:32.209Z,12.10
2023-04-02T10:01:40.392Z,11.70
2023-04-02T10:03:49.758Z,11.05
2023-04-02T10:06:12.284Z,11.65
2023-04-02T10:08:23.871Z,11.90
2023-04-02T10:10:35.059Z,11.68
2023-04-02T10:12:46.739Z,10.88
2023-04-02T10:14:54.527Z,11.23
2023-04-02T10:17:07.378Z,12.07
2023-04-02T10:19:23.130Z,11.18
2023-04-02T10:21:32.867Z,10.98
2023-04-02T10:23:40.252Z,10.70
2023-04-02T10:25:52.962Z,10.43
2023-04-02T10:28:11.040Z,11.00
2023-04-02T10:30:26.488Z,11.05
2023-04-02T10:32:40.069Z,11.38
2023-04-02T10:34:56.476Z,10.55
2023-04-02T10:37:12.906Z,11.20
2023-04-02T10:39:24.955Z,11.18
2023-04-02T10:41:37.919Z,11.23
2023-04-02T10:43:59.374Z,10.45
2023-04-02T10:46:24.451Z,11.52
2023-04-02T10:48:40.628Z,11.38
2023-04-02T10:50:54.368Z,11.20
2023-04-02T10:53:09.585Z,11.48
2023-04-02T10:55:21.709Z,11.27
2023-04-02T10:57:37.910Z,11.35
2023-04-02T10:59:50.434Z,11.25
2023-04-02T11:02:13.164Z,11.25
2023-04-02T11:04:23.485Z,11.32
2023-04-02T11:06:39.829Z,11.55
2023-04-02T11:08:49.930Z,11.40
2023-04-02T11:11:04.319Z,10.93
2023-04-02T11:13:21.572Z,11.57
2023-04-02T11:15:30.827Z,11.25
2023-04-02T11:17:38.785Z,11.18
2023-04-02T11:19:46.743Z,11.35
2023-04-02T11:22:00.268Z,11.98
2023-04-02T11:24:09.742Z,11.63
2023-04-02T11:26:48.413Z,10.95
2023-04-02T11:29:08.652Z,11.15
2023-04-02T11:33:50.082Z,11.63
2023-04-02T11:35:57.983Z,11.30
2023-04-02T11:38:28.167Z,11.73
2023-04-02T11:40:49.180Z,12.10
2023-04-02T11:42:56.766Z,12.23
2023-04-02T11:45:25.978Z,12.75
2023-04-02T11:47:34.339Z,11.98
2023-04-02T11:50:01.497Z,12.07
2023-04-02T11:52:23.513Z,13.13
2023-04-02T11:54:35.291Z,13.55
2023-04-02T11:56:50.043Z,13.00
2023-04-02T11:59:13.718Z,13.27
2023-04-02T12:04:32.547Z,14.15
2023-04-02T12:06:54.364Z,13.13
2023-04-02T12:09:13.679Z,13.70
2023-04-02T12:11:33.150Z,12.30
2023-04-02T12:13:59.581Z,12.75
2023-04-02T12:16:23.474Z,11.82
2023-04-02T12:18:30.942Z,12.15
2023-04-02T12:20:38.844Z,10.60
2023-04-02T12:22:52.230Z,11.82
2023-04-02T12:25:02.739Z,10.40
2023-04-02T12:27:23.427Z,10.48
2023-04-02T12:29:31.885Z,11.43
2023-04-02T12:31:48.245Z,10.68
2023-04-02T12:33:57.208Z,10.65
2023-04-02T12:36:05.539Z,10.88
2023-04-02T12:38:24.013Z,10.98
2023-04-02T12:40:31.913Z,11.27
2023-04-02T12:42:41.573Z,11.05
2023-04-02T12:44:53.188Z,10.77
2023-04-02T12:49:47.234Z,10.23
2023-04-02T12:52:01.745Z,10.70
2023-04-02T12:54:09.532Z,10.13
2023-04-02T12:56:24.341Z,10.98
2023-04-02T12:58:40.228Z,11.43
2023-04-02T13:00:47.867Z,11.52
2023-04-02T13:03:01.328Z,11.90
2023-04-02T13:05:09.451Z,11.82
2023-04-02T13:07:21.603Z,12.35
2023-04-02T13:09:38.103Z,11.45
2023-04-02T13:11:46.102Z,11.38
2023-04-02T13:13:55.536Z,12.52
2023-04-02T13:16:11.403Z,11.13
2023-04-02T13:18:24.753Z,12.02
2023-04-02T13:20:40.429Z,12.20
2023-04-02T13:22:48.186Z,12.35
2023-04-02T13:25:00.382Z,12.48
2023-04-02T13:27:08.221Z,13.07
2023-04-02T13:29:26.618Z,13.45
2023-04-02T13:31:35.368Z,12.15
2023-04-02T13:33:42.924Z,12.02
2023-04-02T13:35:50.850Z,12.60
2023-04-02T13:37:58.224Z,12.52
2023-04-02T13:40:06.710Z,11.60
2023-04-02T13:42:15.857Z,10.75
2023-04-02T13:44:27.270Z,11.77
2023-04-02T13:46:36.764Z,11.75
2023-04-02T13:48:44.042Z,11.40
2023-04-02T13:50:54.406Z,12.13
2023-04-02T13:53:12.901Z,12.85
2023-04-02T13:55:21.162Z,11.85
2023-04-02T13:57:28.277Z,11.55
2023-04-02T13:59:37.368Z,11.45
2023-04-02T14:01:46.595Z,12.52
2023-04-02T14:03:54.628Z,11.48
2023-04-02T14:06:09.405Z,11.50
2023-04-02T14:08:24.369Z,11.25
2023-04-02T14:10:46.809Z,11.82
2023-04-02T14:13:09.351Z,12.57
2023-04-02T14:15:29.336Z,11.57
2023-04-02T14:17:48.488Z,11.82
2023-04-02T14:20:13.092Z,11.40
2023-04-02T14:22:29.995Z,11.57
2023-04-02T14:24:47.366Z,10.65
2023-04-02T14:27:21.941Z,10.75
2023-04-02T14:29:35.425Z,10.98
2023-04-02T14:31:50.078Z,11.48
2023-04-02T14:34:05.706Z,11.05
2023-04-02T14:36:20.053Z,12.07
2023-04-02T14:38:48.177Z,12.43
2023-04-02T14:40:59.505Z,11.30
2023-04-02T14:43:11.398Z,12.20
2023-04-02T14:47:34.553Z,11.80
2023-04-02T14:49:44.310Z,11.13
2023-04-02T14:51:54.983Z,10.93
2023-04-02T14:54:12.803Z,12.02
2023-04-02T14:56:21.108Z,12.35
2023-04-02T14:58:33.518Z,11.75
2023-04-02T15:00:44.436Z,11.20
2023-04-02T15:02:59.091Z,11.60
2023-04-02T15:05:14.206Z,11.35
2023-04-02T15:07:27.940Z,12.40
2023-04-02T15:09:40.936Z,12.30
2023-04-02T15:11:53.926Z,11.48
2023-04-02T15:14:06.821Z,11.70
2023-04-02T15:16:20.315Z,11.57
2023-04-02T15:18:29.703Z,11.88
2023-04-02T15:20:42.978Z,11.40
2023-04-02T15:23:05.167Z,12.48
2023-04-02T15:25:24.683Z,11.80
2023-04-02T15:27:42.155Z,11.27
2023-04-02T15:29:56.557Z,11.68
2023-04-02T15:32:09.985Z,12.18
2023-04-02T15:37:08.678Z,12.43
2023-04-02T15:42:06.371Z,11.57
2023-04-02T15:44:17.001Z,12.23
2023-04-02T15:46:30.458Z,11.93
2023-04-02T15:49:08.980Z,13.18
2023-04-02T15:51:29.213Z,12.82
2023-04-02T15:53:49.295Z,12.88
2023-04-02T15:56:16.098Z,12.68
2023-04-02T15:58:33.253Z,12.25
2023-04-02T16:00:45.698Z,13.25
2023-04-02T16:03:18.339Z,13.05
2023-04-02T16:05:36.898Z,13.25
2023-04-02T16:08:13.868Z,13.25
2023-04-02T16:10:37.903Z,12.30
2023-04-02T16:12:47.994Z,13.27
2023-04-02T16:14:57.743Z,14.15
2023-04-02T16:17:21.419Z,13.15
2023-04-02T16:19:37.502Z,13.70
2023-04-02T16:21:52.306Z,13.95
2023-04-02T16:24:01.384Z,14.45
2023-04-02T16:26:25.511Z,14.07
2023-04-02T16:28:39.402Z,13.38
2023-04-02T16:30:56.349Z,14.23
2023-04-02T16:33:22.180Z,13.73
2023-04-02T16:35:43.202Z,14.82
2023-04-02T16:40:11.169Z,13.82
2023-04-02T16:42:29.150Z,13.90
2023-04-02T16:44:47.085Z,13.68
2023-04-02T16:47:07.370Z,13.55
2023-04-02T16:49:23.721Z,14.40
2023-04-02T16:51:40.990Z,15.15
2023-04-02T16:56:36.769Z,14.38
2023-04-02T16:58:53.734Z,14.15
2023-04-02T17:01:06.509Z,14.93
2023-04-02T17:03:31.850Z,15.63
2023-04-02T17:05:53.220Z,15.27
2023-04-02T17:08:15.607Z,14.97
2023-04-02T17:10:35.472Z,15.07
2023-04-02T17:13:04.782Z,14.82
2023-04-02T17:15:27.886Z,16.15
2023-04-02T17:17:36.102Z,15.55
2023-04-02T17:19:45.530Z,15.90
2023-04-02T17:21:56.041Z,15.73
2023-04-02T17:24:12.384Z,15.88
2023-04-02T17:26:23.713Z,16.30
2023-04-02T17:28:37.961Z,15.75
2023-04-02T17:30:48.162Z,16.30
2023-04-02T17:32:55.536Z,15.73
2023-04-02T17:35:19.324Z,15.82
2023-04-02T17:37:34.438Z,17.00
2023-04-02T17:39:48.386Z,16.55
2023-04-02T17:42:19.265Z,16.27
2023-04-02T17:44:54.970Z,16.17
2023-04-02T17:47:09.879Z,15.82
2023-04-02T17:49:30.019Z,17.08
2023-04-02T17:51:43.141Z,17.20
2023-04-02T17:54:02.671Z,17.50
2023-04-02T17:56:32.980Z,16.85
2023-04-02T17:59:11.393Z,15.75
2023-04-02T18:01:27.933Z,16.10
2023-04-02T18:03:51.307Z,16.02
2023-04-02T18:06:02.536Z,16.25
2023-04-02T18:08:23.593Z,15.95
2023-04-02T18:10:41.196Z,15.30
2023-04-02T18:13:00.941Z,14.32
2023-04-02T18:15:44.065Z,15.43
2023-04-02T18:17:56.267Z,15.18
2023-04-02T18:20:12.723Z,15.27
2023-04-02T18:25:04.248Z,16.20
2023-04-02T18:27:25.921Z,16.15
2023-04-02T18:29:45.900Z,15.73
2023-04-02T18:32:00.253Z,15.10
2023-04-02T18:36:56.340Z,14.75
2023-04-02T18:39:21.901Z,15.38
2023-04-02T18:41:45.318Z,15.63
2023-04-02T18:44:06.834Z,16.23
2023-04-02T18:46:23.764Z,15.00
2023-04-02T18:48:42.004Z,14.70
2023-04-02T18:50:49.317Z,15.25
2023-04-02T18:55:25.849Z,14.93
2023-04-02T18:57:37.082Z,15.27
2023-04-02T18:59:49.946Z,15.13
2023-04-02T19:01:59.582Z,15.23
2023-04-02T19:04:10.692Z,15.80
2023-04-02T19:06:22.292Z,14.82
2023-04-02T19:08:36.278Z,15.77
2023-04-02T19:10:47.150Z,14.90
2023-04-02T19:12:54.535Z,14.60
2023-04-02T19:15:03.362Z,14.88
2023-04-02T19:17:20.162Z,15.30
2023-04-02T19:19:29.958Z,14.48
2023-04-02T19:21:45.126Z,15.27
2023-04-02T19:24:06.336Z,14.55
2023-04-02T19:26:17.361Z,15.10
2023-04-02T19:28:48.713Z,15.68
2023-04-02T19:31:18.218Z,15.02
2023-04-02T19:33:37.838Z,15.55
2023-04-02T19:35:51.030Z,14.93
2023-04-02T19:38:09.553Z,14.77
2023-04-02T19:40:30.048Z,15.48
2023-04-02T19:42:48.555Z,15.68
2023-04-02T19:44:58.694Z,16.13
2023-04-02T19:47:06.096Z,15.25
2023-04-02T19:49:17.870Z,14.60
2023-04-02T19:51:25.205Z,15.88
2023-04-02T19:53:32.854Z,15.52
2023-04-02T19:55:42.744Z,15.90
2023-04-02T19:57:51.305Z,16.10
2023-04-02T19:59:58.561Z,15.85
2023-04-02T20:02:08.205Z,15.75
2023-04-02T20:04:15.336Z,14.73
2023-04-02T20:06:22.950Z,15.73
2023-04-02T20:08:30.286Z,16.58
2023-04-02T20:10:37.989Z,15.30
2023-04-02T20:12:47.318Z,16.35
2023-04-02T20:14:54.907Z,16.23
2023-04-02T20:17:02.389Z,16.25
2023-04-02T20:19:09.884Z,16.00
2023-04-02T20:21:17.168Z,15.98
2023-04-02T20:23:24.555Z,16.40
2023-04-02T20:25:32.004Z,16.20
2023-04-02T20:27:39.079Z,16.23
2023-04-02T20:30:04.288Z,16.88
2023-04-02T20:32:11.973Z,15.52
2023-04-02T20:34:19.845Z,15.38
2023-04-02T20:36:27.566Z,16.75
2023-04-02T20:38:36.042Z,17.02
2023-04-02T20:40:47.663Z,17.02
2023-04-02T20:42:55.509Z,16.70
2023-04-02T20:45:18.204Z,16.73
2023-04-02T20:47:25.597Z,17.83
2023-04-02T20:49:32.926Z,16.90
2023-04-02T20:51:40.067Z,16.20
2023-04-02T20:53:47.709Z,17.80
2023-04-02T20:55:55.802Z,16.25
2023-04-02T20:58:03.753Z,16.13
2023-04-02T21:00:20.817Z,17.95
2023-04-02T21:02:28.383Z,17.92
2023-04-02T21:04:35.571Z,17.50
2023-04-02T21:06:44.162Z,18.88
2023-04-02T21:08:52.052Z,17.42
2023-04-02T21:11:06.099Z,18.13
2023-04-02T21:13:13.227Z,17.90
2023-04-02T21:15:35.365Z,17.77
2023-04-02T21:17:42.962Z,16.90
2023-04-02T21:19:51.359Z,18.45
2023-04-02T21:21:59.410Z,17.90
2023-04-02T21:24:09.104Z,17.85
2023-04-02T21:26:17.785Z,17.20
2023-04-02T21:28:25.407Z,17.65
2023-04-02T21:32:54.791Z,17.80
2023-04-02T21:35:01.960Z,17.88
2023-04-02T21:37:09.283Z,18.02
2023-04-02T21:39:20.418Z,17.25
2023-04-02T21:41:29.640Z,17.90
2023-04-02T21:43:36.767Z,17.60
2023-04-02T21:45:45.790Z,18.90
2023-04-02T21:47:53.229Z,18.00
2023-04-02T21:50:00.819Z,18.83
2023-04-02T21:52:08.403Z,18.30
2023-04-02T21:54:16.667Z,17.85
2023-04-02T21:56:24.876Z,18.13
2023-04-02T22:00:57.847Z,19.92
2023-04-02T22:03:05.177Z,19.92
2023-04-02T22:05:12.857Z,21.10
2023-04-02T22:07:20.137Z,23.30
2023-04-02T22:09:29.269Z,26.13
2023-04-02T22:11:38.597Z,22.40
2023-04-02T22:13:47.206Z,23.80
2023-04-02T22:15:56.492Z,25.10
2023-04-02T22:18:03.863Z,29.13
2023-04-02T22:20:12.413Z,35.63
2023-04-02T22:22:19.985Z,36.53
2023-04-02T22:24:27.883Z,45.53
2023-04-02T22:26:54.316Z,37.80
2023-04-02T22:29:02.214Z,33.63
2023-04-02T22:31:23.969Z,28.95
2023-04-02T22:33:33.317Z,26.00
2023-04-02T22:35:41.372Z,25.13
2023-04-02T22:37:49.113Z,30.60
2023-04-02T22:39:56.248Z,29.40
2023-04-02T22:42:07.060Z,25.98
2023-04-02T22:44:18.137Z,25.80
2023-04-02T22:46:28.935Z,24.33
2023-04-02T22:48:36.615Z,23.95
2023-04-02T22:50:44.132Z,23.80
2023-04-02T22:52:51.465Z,22.95
2023-04-02T22:54:59.110Z,23.92
2023-04-02T22:57:21.999Z,23.38
2023-04-02T22:59:29.598Z,23.45
2023-04-02T23:01:39.935Z,23.38
2023-04-02T23:03:47.599Z,23.63
2023-04-02T23:06:03.334Z,24.00
2023-04-02T23:08:11.235Z,22.10
2023-04-02T23:10:19.240Z,22.90
2023-04-02T23:12:27.077Z,22.00
2023-04-02T23:14:35.750Z,23.75
2023-04-02T23:16:44.773Z,23.25
2023-04-02T23:18:52.165Z,23.23
2023-04-02T23:20:59.955Z,23.55
2023-04-02T23:23:07.750Z,22.92
2023-04-02T23:25:15.348Z,23.00
2023-04-02T23:27:22.419Z,22.63
2023-04-02T23:29:29.910Z,23.85
2023-04-02T23:31:37.138Z,22.95
2023-04-02T23:33:46.267Z,22.23
2023-04-02T23:35:53.682Z,23.25
2023-04-02T23:38:01.301Z,22.98
2023-04-02T23:40:09.659Z,22.88
2023-04-02T23:42:17.250Z,23.23
2023-04-02T23:44:24.686Z,23.38
2023-04-02T23:46:33.188Z,22.92
2023-04-02T23:48:40.536Z,22.00
2023-04-02T23:50:50.531Z,23.35
2023-04-02T23:52:57.640Z,23.17
2023-04-02T23:55:05.254Z,22.50
2023-04-02T23:57:12.684Z,23.55
2023-04-02T23:59:20.283Z,22.98
